Terminal Aerodrome Forecast
Issued by NWS

Home | Current Version | Previous Version | Text Only | Print | Product List | Glossary On
Versions: 1 2 3 4 5 6 7 8 9 10 11 12 13
000
FTUS45 KABQ 300541
TAFGUP
TAF
KGUP 300541Z 3006/3106 VRB04KT P6SM BKN070
      TEMPO 3009/3013 OVC025
     FM301900 12010KT P6SM VCTS BKN050CB
     FM310200 12007KT P6SM VCSH OVC060=

USA.gov is the U.S. government's official web portal to all federal, state and local government web resources and services.